Time,TemperatureF,DewpointF,PressureIn,WindDirection,WindDirectionDegrees,WindSpeedMPH,WindSpeedGustMPH,Humidity,HourlyPrecipIn,Conditions,Clouds,dailyrainin,SoftwareType,DateUTC
2013-01-20 00:01:00,39.7,24.4,29.80,North,-999,-999.0,-999.0,54,-99.99,,,-99.99,WSDL version 420,2013-01-20 05:01:00,
2013-01-20 00:02:00,39.7,24.5,29.80,North,-999,-999.0,-999.0,54,-99.99,,,-99.99,WSDL version 420,2013-01-20 05:02:00,
2013-01-20 00:04:00,39.7,24.4,29.80,North,-999,-999.0,-999.0,54,-99.99,,,-99.99,WSDL version 420,2013-01-20 05:04:00,
2013-01-20 00:10:00,39.7,24.4,29.80,North,-999,-999.0,-999.0,54,0.00,,,0.00,WSDL version 420,2013-01-20 05:10:00,
2013-01-20 00:16:00,39.7,24.5,29.80,North,-999,-999.0,-999.0,54,0.00,,,0.00,WSDL version 420,2013-01-20 05:16:00,
2013-01-20 00:22:00,39.7,24.5,29.80,North,-999,-999.0,-999.0,54,-99.99,,,-99.99,WSDL version 420,2013-01-20 05:22:00,
2013-01-20 00:28:00,39.6,24.4,29.80,North,-999,-999.0,-999.0,54,-99.99,,,-99.99,WSDL version 420,2013-01-20 05:28:00,
2013-01-20 00:34:00,39.6,24.3,29.80,North,-999,-999.0,-999.0,54,0.00,,,0.00,WSDL version 420,2013-01-20 05:34:00,
2013-01-20 00:40:00,39.5,24.2,29.80,SSW,203,0.9,0.9,54,0.00,,,0.00,WSDL version 420,2013-01-20 05:40:00,
2013-01-20 00:46:00,39.1,24.1,29.80,West,270,4.0,4.0,55,0.00,,,0.00,WSDL version 420,2013-01-20 05:46:00,
2013-01-20 00:52:00,39.0,24.2,29.80,West,270,4.3,4.3,55,0.00,,,0.00,WSDL version 420,2013-01-20 05:52:00,
2013-01-20 00:58:00,39.0,24.2,29.77,WSW,248,2.9,4.3,55,0.00,,,0.00,WSDL version 420,2013-01-20 05:58:00,
2013-01-20 01:04:00,38.8,24.0,29.77,WNW,293,0.0,6.0,55,0.00,,,0.00,WSDL version 420,2013-01-20 06:04:00,
2013-01-20 01:10:00,38.5,23.8,29.77,West,259,3.7,6.0,55,0.00,,,0.00,WSDL version 420,2013-01-20 06:10:00,
2013-01-20 01:16:00,38.5,23.8,29.77,WSW,248,2.6,4.3,55,0.00,,,0.00,WSDL version 420,2013-01-20 06:16:00,
2013-01-20 01:22:00,38.5,23.7,29.77,WSW,248,3.1,3.8,55,0.00,,,0.00,WSDL version 420,2013-01-20 06:22:00,
2013-01-20 01:28:00,38.5,24.2,29.77,West,270,7.4,7.4,56,0.00,,,0.00,WSDL version 420,2013-01-20 06:28:00,
2013-01-20 01:34:00,38.6,24.3,29.77,WSW,248,2.7,7.4,56,0.00,,,0.00,WSDL version 420,2013-01-20 06:34:00,
2013-01-20 01:40:00,38.3,24.0,29.77,WSW,248,2.7,4.9,56,0.00,,,0.00,WSDL version 420,2013-01-20 06:40:00,
2013-01-20 01:46:00,38.5,24.2,29.77,West,270,3.9,4.0,56,0.00,,,0.00,WSDL version 420,2013-01-20 06:46:00,
2013-01-20 01:53:00,38.7,24.3,29.77,WSW,248,3.6,4.0,56,0.00,,,0.00,WSDL version 420,2013-01-20 06:53:00,
2013-01-20 01:59:00,38.5,24.2,29.74,WSW,248,3.6,3.8,56,0.00,,,0.00,WSDL version 420,2013-01-20 06:59:00,
2013-01-20 02:05:00,38.5,24.3,29.74,West,270,2.7,3.6,57,0.00,,,0.00,WSDL version 420,2013-01-20 07:05:00,
2013-01-20 02:11:00,38.4,24.5,29.77,West,259,2.6,2.7,57,0.00,,,0.00,WSDL version 420,2013-01-20 07:11:00,
2013-01-20 02:17:00,38.0,24.1,29.77,WNW,293,2.7,4.3,57,0.00,,,0.00,WSDL version 420,2013-01-20 07:17:00,
2013-01-20 02:23:00,37.6,23.7,29.77,NW,315,3.1,3.1,57,0.00,,,0.00,WSDL version 420,2013-01-20 07:23:00,
2013-01-20 02:29:00,37.5,23.7,29.77,WNW,300,3.7,4.9,57,0.00,,,0.00,WSDL version 420,2013-01-20 07:29:00,
2013-01-20 02:35:00,37.5,23.7,29.77,West,270,2.5,4.9,57,0.00,,,0.00,WSDL version 420,2013-01-20 07:35:00,
2013-01-20 02:41:00,37.0,23.6,29.77,West,270,2.2,4.5,58,0.00,,,0.00,WSDL version 420,2013-01-20 07:41:00,
2013-01-20 02:47:00,36.9,23.5,29.77,WSW,248,2.2,2.2,58,0.00,,,0.00,WSDL version 420,2013-01-20 07:47:00,
2013-01-20 02:53:00,36.7,23.7,29.77,WSW,248,2.2,2.2,59,0.00,,,0.00,WSDL version 420,2013-01-20 07:53:00,
2013-01-20 02:59:00,36.9,23.9,29.74,WSW,248,3.8,4.0,59,0.00,,,0.00,WSDL version 420,2013-01-20 07:59:00,
2013-01-20 03:05:00,36.7,23.8,29.74,SW,233,3.5,4.0,59,0.00,,,0.00,WSDL version 420,2013-01-20 08:05:00,
2013-01-20 03:11:00,36.9,24.0,29.74,West,281,3.4,4.0,60,0.00,,,0.00,WSDL version 420,2013-01-20 08:11:00,
2013-01-20 03:17:00,36.7,24.1,29.74,WSW,248,3.1,3.8,60,0.00,,,0.00,WSDL version 420,2013-01-20 08:17:00,
2013-01-20 03:23:00,36.6,24.0,29.74,WSW,248,2.9,4.3,60,0.00,,,0.00,WSDL version 420,2013-01-20 08:23:00,
2013-01-20 03:29:00,36.4,23.8,29.74,West,270,3.8,3.8,60,0.00,,,0.00,WSDL version 420,2013-01-20 08:29:00,
2013-01-20 03:36:00,36.4,24.3,29.74,West,270,4.9,4.9,61,0.00,,,0.00,WSDL version 420,2013-01-20 08:36:00,
2013-01-20 03:42:00,36.3,24.1,29.71,West,278,2.2,4.9,61,0.00,,,0.00,WSDL version 420,2013-01-20 08:42:00,
2013-01-20 03:48:00,36.1,23.9,29.71,West,270,2.0,3.6,61,0.00,,,0.00,WSDL version 420,2013-01-20 08:48:00,
2013-01-20 03:54:00,35.8,23.8,29.71,SW,225,7.8,7.8,62,0.00,,,0.00,WSDL version 420,2013-01-20 08:54:00,
2013-01-20 04:00:00,35.7,24.0,29.71,WSW,248,2.9,7.8,62,0.00,,,0.00,WSDL version 420,2013-01-20 09:00:00,
2013-01-20 04:06:00,35.7,24.4,29.71,West,270,6.3,7.8,63,0.00,,,0.00,WSDL version 420,2013-01-20 09:06:00,
2013-01-20 04:12:00,35.7,24.3,29.71,SW,225,2.9,6.3,63,0.00,,,0.00,WSDL version 420,2013-01-20 09:12:00,
2013-01-20 04:18:00,35.5,24.2,29.71,West,270,2.5,2.9,63,0.00,,,0.00,WSDL version 420,2013-01-20 09:18:00,
2013-01-20 04:24:00,35.5,24.2,29.71,SSW,203,2.2,2.5,63,0.00,,,0.00,WSDL version 420,2013-01-20 09:24:00,
2013-01-20 04:30:00,35.7,24.4,29.68,WSW,248,0.9,2.7,63,0.00,,,0.00,WSDL version 420,2013-01-20 09:30:00,
2013-01-20 04:36:00,35.7,24.4,29.68,West,270,3.1,3.1,63,0.00,,,0.00,WSDL version 420,2013-01-20 09:36:00,
2013-01-20 04:42:00,35.6,24.6,29.68,West,270,2.9,3.1,64,0.00,,,0.00,WSDL version 420,2013-01-20 09:42:00,
2013-01-20 04:48:00,35.6,24.6,29.68,West,270,3.4,3.4,64,0.00,,,0.00,WSDL version 420,2013-01-20 09:48:00,
2013-01-20 04:54:00,35.5,24.7,29.68,West,281,2.1,3.4,65,0.00,,,0.00,WSDL version 420,2013-01-20 09:54:00,
2013-01-20 05:00:00,35.5,24.7,29.68,WSW,248,4.7,8.1,65,0.00,,,0.00,WSDL version 420,2013-01-20 10:00:00,
2013-01-20 05:06:00,35.4,24.8,29.68,SW,236,3.2,8.1,65,0.00,,,0.00,WSDL version 420,2013-01-20 10:06:00,
2013-01-20 05:13:00,35.3,24.9,29.68,SSW,203,2.5,4.0,66,0.00,,,0.00,WSDL version 420,2013-01-20 10:13:00,
2013-01-20 05:19:00,35.4,25.2,29.68,SW,225,0.0,4.0,66,0.00,,,0.00,WSDL version 420,2013-01-20 10:19:00,
2013-01-20 05:25:00,35.4,25.1,29.68,SW,225,4.9,4.9,66,0.00,,,0.00,WSDL version 420,2013-01-20 10:25:00,
2013-01-20 05:31:00,35.2,25.0,29.68,SW,233,2.7,5.6,66,0.00,,,0.00,WSDL version 420,2013-01-20 10:31:00,
2013-01-20 05:37:00,35.0,24.8,29.68,WSW,248,4.3,5.6,66,0.00,,,0.00,WSDL version 420,2013-01-20 10:37:00,
2013-01-20 05:43:00,34.9,24.7,29.65,SSW,203,1.6,4.3,66,0.00,,,0.00,WSDL version 420,2013-01-20 10:43:00,
2013-01-20 05:49:00,34.9,24.7,29.65,West,270,2.7,3.1,66,0.00,,,0.00,WSDL version 420,2013-01-20 10:49:00,
2013-01-20 05:55:00,34.8,24.6,29.65,WSW,242,1.6,2.7,66,0.00,,,0.00,WSDL version 420,2013-01-20 10:55:00,
2013-01-20 06:03:00,34.8,24.6,29.65,SW,225,2.7,2.7,66,0.00,,,0.00,WSDL version 420,2013-01-20 11:03:00,
2013-01-20 06:09:00,34.6,24.4,29.65,SSW,210,4.0,5.4,66,0.00,,,0.00,WSDL version 420,2013-01-20 11:09:00,
2013-01-20 06:15:00,34.8,24.6,29.65,West,263,1.8,5.4,66,0.00,,,0.00,WSDL version 420,2013-01-20 11:15:00,
2013-01-20 06:21:00,34.5,24.5,29.65,SW,225,3.6,4.3,67,0.00,,,0.00,WSDL version 420,2013-01-20 11:21:00,
2013-01-20 06:27:00,34.5,24.7,29.65,WSW,248,2.7,4.3,67,0.00,,,0.00,WSDL version 420,2013-01-20 11:27:00,
2013-01-20 06:33:00,34.5,24.7,29.65,SW,236,2.5,2.7,67,0.00,,,0.00,WSDL version 420,2013-01-20 11:33:00,
2013-01-20 06:39:00,34.4,24.6,29.65,WSW,248,2.4,2.9,67,0.00,,,0.00,WSDL version 420,2013-01-20 11:39:00,
2013-01-20 06:45:00,34.5,24.7,29.65,WSW,255,1.6,3.8,67,0.00,,,0.00,WSDL version 420,2013-01-20 11:45:00,
2013-01-20 06:51:00,34.5,24.7,29.65,SW,219,1.7,3.8,67,0.00,,,0.00,WSDL version 420,2013-01-20 11:51:00,
2013-01-20 06:57:00,34.5,24.6,29.65,WSW,248,0.9,2.9,67,0.00,,,0.00,WSDL version 420,2013-01-20 11:57:00,
2013-01-20 07:03:00,34.4,24.6,29.65,West,270,1.1,2.9,67,0.00,,,0.00,WSDL version 420,2013-01-20 12:03:00,
2013-01-20 07:10:00,34.6,24.8,29.65,West,270,1.1,2.5,67,0.00,,,0.00,WSDL version 420,2013-01-20 12:10:00,
2013-01-20 07:16:00,34.6,24.9,29.65,South,180,2.7,2.7,68,0.00,,,0.00,WSDL version 420,2013-01-20 12:16:00,
2013-01-20 07:22:00,34.6,24.8,29.65,West,270,4.0,4.0,67,0.00,,,0.00,WSDL version 420,2013-01-20 12:22:00,
2013-01-20 07:28:00,34.6,25.0,29.65,SW,214,2.7,4.0,68,0.00,,,0.00,WSDL version 420,2013-01-20 12:28:00,
2013-01-20 07:34:00,34.8,25.0,29.65,WSW,248,2.9,4.0,68,0.00,,,0.00,WSDL version 420,2013-01-20 12:34:00,
2013-01-20 07:40:00,34.7,25.1,29.65,WNW,293,1.6,2.9,67,0.00,,,0.00,WSDL version 420,2013-01-20 12:40:00,
2013-01-20 07:46:00,34.6,25.1,29.65,SW,225,2.7,2.9,68,0.00,,,0.00,WSDL version 420,2013-01-20 12:46:00,
2013-01-20 07:52:00,34.9,25.3,29.65,WSW,248,1.5,2.9,67,0.00,,,0.00,WSDL version 420,2013-01-20 12:52:00,
2013-01-20 07:58:00,35.1,25.2,29.65,SW,214,1.6,3.1,67,0.00,,,0.00,WSDL version 420,2013-01-20 12:58:00,
2013-01-20 08:04:00,35.4,25.6,29.65,SW,225,1.3,3.1,67,0.00,,,0.00,WSDL version 420,2013-01-20 13:04:00,
2013-01-20 08:10:00,35.6,25.7,29.65,SW,225,2.5,3.6,67,0.00,,,0.00,WSDL version 420,2013-01-20 13:10:00,
2013-01-20 08:16:00,36.1,25.8,29.65,SW,219,3.4,4.3,66,0.00,,,0.00,WSDL version 420,2013-01-20 13:16:00,
2013-01-20 08:22:00,36.1,25.9,29.65,SSW,210,3.7,4.3,66,0.00,,,0.00,WSDL version 420,2013-01-20 13:22:00,
2013-01-20 08:28:00,36.6,26.3,29.65,SW,225,2.0,4.0,66,0.00,,,0.00,WSDL version 420,2013-01-20 13:28:00,
2013-01-20 08:34:00,36.9,26.3,29.65,WSW,248,2.9,3.1,65,0.00,,,0.00,WSDL version 420,2013-01-20 13:34:00,
2013-01-20 08:41:00,37.8,26.7,29.65,West,270,3.4,3.4,64,0.00,,,0.00,WSDL version 420,2013-01-20 13:41:00,
2013-01-20 08:47:00,38.2,27.0,29.65,WSW,248,3.1,3.8,64,0.00,,,0.00,WSDL version 420,2013-01-20 13:47:00,
2013-01-20 08:53:00,38.6,27.0,29.65,WNW,293,1.3,4.7,62,0.00,,,0.00,WSDL version 420,2013-01-20 13:53:00,
2013-01-20 08:59:00,38.9,27.3,29.65,WSW,255,1.7,2.0,62,0.00,,,0.00,WSDL version 420,2013-01-20 13:59:00,
2013-01-20 09:05:00,39.2,27.1,29.65,WSW,248,6.0,6.0,62,0.00,,,0.00,WSDL version 420,2013-01-20 14:05:00,
2013-01-20 09:11:00,39.4,26.9,29.65,WSW,248,6.0,6.0,60,0.00,,,0.00,WSDL version 420,2013-01-20 14:11:00,
2013-01-20 09:17:00,39.3,27.0,29.65,WSW,248,6.0,6.0,61,0.00,,,0.00,WSDL version 420,2013-01-20 14:17:00,
2013-01-20 09:23:00,39.6,26.9,29.65,North,-999,-999.0,-999.0,60,0.00,,,0.00,WSDL version 420,2013-01-20 14:23:00,
2013-01-20 09:29:00,40.1,26.9,29.65,North,-999,-999.0,-999.0,59,0.00,,,0.00,WSDL version 420,2013-01-20 14:29:00,
2013-01-20 09:35:00,40.6,27.3,29.65,North,-999,-999.0,-999.0,58,0.00,,,0.00,WSDL version 420,2013-01-20 14:35:00,
2013-01-20 09:41:00,40.8,26.9,29.65,North,-999,-999.0,-999.0,56,0.00,,,0.00,WSDL version 420,2013-01-20 14:41:00,
2013-01-20 09:47:00,41.2,27.0,29.65,North,-999,-999.0,-999.0,57,0.00,,,0.00,WSDL version 420,2013-01-20 14:47:00,
2013-01-20 09:53:00,41.4,27.3,29.65,North,-999,-999.0,-999.0,57,0.00,,,0.00,WSDL version 420,2013-01-20 14:53:00,
2013-01-20 10:07:00,42.4,27.8,29.65,North,-999,-999.0,-999.0,56,0.00,,,0.00,WSDL version 420,2013-01-20 15:07:00,
2013-01-20 10:13:00,42.9,28.1,29.65,North,-999,-999.0,-999.0,56,0.00,,,0.00,WSDL version 420,2013-01-20 15:13:00,
2013-01-20 10:19:00,44.0,28.7,29.65,North,-999,-999.0,-999.0,55,-99.99,,,-99.99,WSDL version 420,2013-01-20 15:19:00,
2013-01-20 10:25:00,44.5,29.0,29.65,North,-999,-999.0,-999.0,55,0.00,,,0.00,WSDL version 420,2013-01-20 15:25:00,
2013-01-20 10:31:00,44.8,28.9,29.62,North,-999,-999.0,-999.0,53,0.00,,,0.00,WSDL version 420,2013-01-20 15:31:00,
2013-01-20 10:37:00,45.4,29.1,29.62,North,-999,-999.0,-999.0,52,0.00,,,0.00,WSDL version 420,2013-01-20 15:37:00,
2013-01-20 10:43:00,45.7,29.2,29.62,North,-999,-999.0,-999.0,52,-99.99,,,-99.99,WSDL version 420,2013-01-20 15:43:00,
2013-01-20 10:49:00,46.0,29.2,29.62,North,-999,-999.0,-999.0,51,0.00,,,0.00,WSDL version 420,2013-01-20 15:49:00,
2013-01-20 10:55:00,46.2,29.4,29.62,North,-999,-999.0,-999.0,52,0.00,,,0.00,WSDL version 420,2013-01-20 15:55:00,
2013-01-20 11:01:00,46.6,29.4,29.62,North,-999,-999.0,-999.0,51,0.00,,,0.00,WSDL version 420,2013-01-20 16:01:00,
2013-01-20 11:07:00,46.9,29.2,29.62,North,-999,-999.0,-999.0,50,0.00,,,0.00,WSDL version 420,2013-01-20 16:07:00,
2013-01-20 11:13:00,47.4,29.7,29.62,North,-999,-999.0,-999.0,50,0.00,,,0.00,WSDL version 420,2013-01-20 16:13:00,
2013-01-20 11:19:00,47.3,29.9,29.62,North,-999,-999.0,-999.0,51,0.00,,,0.00,WSDL version 420,2013-01-20 16:19:00,
2013-01-20 11:25:00,47.7,29.9,29.62,North,-999,-999.0,-999.0,50,0.00,,,0.00,WSDL version 420,2013-01-20 16:25:00,
2013-01-20 11:31:00,48.1,29.9,29.59,North,-999,-999.0,-999.0,49,0.00,,,0.00,WSDL version 420,2013-01-20 16:31:00,
2013-01-20 11:37:00,48.1,29.9,29.59,North,-999,-999.0,-999.0,49,0.00,,,0.00,WSDL version 420,2013-01-20 16:37:00,
2013-01-20 11:43:00,47.9,29.5,29.59,North,-999,-999.0,-999.0,48,0.00,,,0.00,WSDL version 420,2013-01-20 16:43:00,
2013-01-20 11:49:00,47.8,29.6,29.59,North,-999,-999.0,-999.0,49,0.00,,,0.00,WSDL version 420,2013-01-20 16:49:00,
2013-01-20 11:55:00,47.9,29.5,29.59,North,-999,-999.0,-999.0,49,0.00,,,0.00,WSDL version 420,2013-01-20 16:55:00,
2013-01-20 12:03:00,48.3,29.6,29.59,North,-999,-999.0,-999.0,48,0.00,,,0.00,WSDL version 420,2013-01-20 17:03:00,
2013-01-20 12:09:00,48.3,29.6,29.59,North,-999,-999.0,-999.0,48,0.04,,,0.04,WSDL version 420,2013-01-20 17:09:00,
2013-01-20 12:15:00,48.0,29.0,29.59,North,-999,-999.0,-999.0,47,0.04,,,0.04,WSDL version 420,2013-01-20 17:15:00,
2013-01-20 12:21:00,47.5,28.8,29.59,North,-999,-999.0,-999.0,48,0.04,,,0.04,WSDL version 420,2013-01-20 17:21:00,
2013-01-20 12:28:00,47.2,28.4,29.59,North,-999,-999.0,-999.0,47,0.04,,,0.04,WSDL version 420,2013-01-20 17:28:00,
2013-01-20 12:34:00,46.9,28.2,29.59,North,-999,-999.0,-999.0,48,-99.99,,,-99.99,WSDL version 420,2013-01-20 17:34:00,
2013-01-20 12:40:00,46.6,28.0,29.59,North,-999,-999.0,-999.0,48,0.04,,,0.04,WSDL version 420,2013-01-20 17:40:00,
2013-01-20 12:46:00,45.6,27.6,29.59,North,-999,-999.0,-999.0,49,0.04,,,0.04,WSDL version 420,2013-01-20 17:46:00,
2013-01-20 12:59:00,44.7,26.7,29.59,SSW,203,3.4,3.4,49,0.04,,,0.04,WSDL version 420,2013-01-20 17:59:00,
2013-01-20 13:05:00,44.7,26.7,29.59,SE,135,2.0,3.4,49,0.00,,,0.04,WSDL version 420,2013-01-20 18:05:00,
2013-01-20 13:11:00,44.7,26.5,29.59,SSW,203,2.7,2.7,48,0.00,,,0.04,WSDL version 420,2013-01-20 18:11:00,
2013-01-20 13:17:00,45.9,27.6,29.59,SSW,203,2.7,2.7,48,-99.99,,,-99.99,WSDL version 420,2013-01-20 18:17:00,
2013-01-20 13:23:00,47.1,28.5,29.59,WSW,248,1.3,2.7,48,0.00,,,0.04,WSDL version 420,2013-01-20 18:23:00,
2013-01-20 13:29:00,47.5,28.8,29.59,WSW,248,1.3,2.7,49,-99.99,,,-99.99,WSDL version 420,2013-01-20 18:29:00,
2013-01-20 13:35:00,48.0,28.8,29.59,WSW,248,1.3,1.3,47,0.00,,,0.04,WSDL version 420,2013-01-20 18:35:00,
2013-01-20 13:41:00,48.7,29.2,29.59,South,180,2.0,2.0,47,-99.99,,,-99.99,WSDL version 420,2013-01-20 18:41:00,
2013-01-20 13:47:00,48.7,28.0,29.59,South,180,2.0,2.0,44,0.00,,,0.04,WSDL version 420,2013-01-20 18:47:00,
2013-01-20 14:08:00,48.7,26.1,29.59,South,180,3.4,3.4,41,0.00,,,0.04,WSDL version 420,2013-01-20 19:08:00,
2013-01-20 14:31:00,48.3,26.3,29.62,West,270,2.7,2.7,42,-99.99,,,-99.99,WSDL version 420,2013-01-20 19:31:00,
2013-01-20 14:37:00,48.1,25.9,29.62,West,270,2.7,2.7,41,0.00,,,0.04,WSDL version 420,2013-01-20 19:37:00,
2013-01-20 14:43:00,47.9,25.4,29.65,North,-999,-999.0,-999.0,41,0.00,,,0.04,WSDL version 420,2013-01-20 19:43:00,
2013-01-20 14:49:00,47.8,25.2,29.65,North,-999,-999.0,-999.0,40,0.00,,,0.04,WSDL version 420,2013-01-20 19:49:00,
2013-01-20 14:55:00,47.8,24.6,29.65,East,101,3.2,3.4,40,0.00,,,0.04,WSDL version 420,2013-01-20 19:55:00,
2013-01-20 15:01:00,47.2,24.5,29.65,WNW,293,2.7,3.4,41,0.00,,,0.04,WSDL version 420,2013-01-20 20:01:00,
2013-01-20 15:07:00,47.1,24.6,29.65,WNW,293,2.7,2.7,41,0.00,,,0.04,WSDL version 420,2013-01-20 20:07:00,
2013-01-20 15:13:00,46.5,24.0,29.68,North,0,0.0,2.7,41,0.00,,,0.04,WSDL version 420,2013-01-20 20:13:00,
2013-01-20 15:19:00,46.2,23.6,29.68,South,180,2.5,2.7,40,0.00,,,0.04,WSDL version 420,2013-01-20 20:19:00,
2013-01-20 15:25:00,45.7,22.8,29.68,South,180,2.5,2.5,40,0.00,,,0.04,WSDL version 420,2013-01-20 20:25:00,
2013-01-20 15:31:00,45.1,22.5,29.68,South,180,2.5,2.5,40,0.00,,,0.04,WSDL version 420,2013-01-20 20:31:00,
2013-01-20 15:38:00,44.8,21.9,29.68,North,-999,-999.0,-999.0,40,0.00,,,0.04,WSDL version 420,2013-01-20 20:38:00,
2013-01-20 15:44:00,44.2,21.8,29.68,North,-999,-999.0,-999.0,40,0.00,,,0.04,WSDL version 420,2013-01-20 20:44:00,
2013-01-20 15:50:00,43.6,21.3,29.68,North,-999,-999.0,-999.0,40,0.00,,,0.04,WSDL version 420,2013-01-20 20:50:00,
2013-01-20 15:56:00,43.3,21.8,29.68,North,-999,-999.0,-999.0,42,0.00,,,0.04,WSDL version 420,2013-01-20 20:56:00,
2013-01-20 16:02:00,42.6,21.3,29.68,North,-999,-999.0,-999.0,42,0.00,,,0.04,WSDL version 420,2013-01-20 21:02:00,
2013-01-20 16:08:00,42.6,20.3,29.68,North,-999,-999.0,-999.0,41,0.00,,,0.04,WSDL version 420,2013-01-20 21:08:00,
2013-01-20 16:14:00,42.1,20.5,29.71,North,-999,-999.0,-999.0,42,0.00,,,0.04,WSDL version 420,2013-01-20 21:14:00,
2013-01-20 16:21:00,41.4,19.8,29.71,North,-999,-999.0,-999.0,41,0.00,,,0.04,WSDL version 420,2013-01-20 21:21:00,
2013-01-20 16:27:00,41.4,19.9,29.71,North,-999,-999.0,-999.0,41,0.00,,,0.04,WSDL version 420,2013-01-20 21:27:00,
2013-01-20 16:33:00,41.2,18.9,29.71,North,-999,-999.0,-999.0,40,0.00,,,0.04,WSDL version 420,2013-01-20 21:33:00,
2013-01-20 16:40:00,40.6,18.9,29.71,North,-999,-999.0,-999.0,41,0.00,,,0.04,WSDL version 420,2013-01-20 21:40:00,
2013-01-20 16:46:00,40.0,18.2,29.74,North,-999,-999.0,-999.0,41,0.00,,,0.04,WSDL version 420,2013-01-20 21:46:00,
2013-01-20 16:52:00,39.4,18.2,29.74,North,-999,-999.0,-999.0,42,-99.99,,,-99.99,WSDL version 420,2013-01-20 21:52:00,
2013-01-20 16:58:00,39.3,17.6,29.77,North,-999,-999.0,-999.0,41,0.00,,,0.04,WSDL version 420,2013-01-20 21:58:00,
2013-01-20 17:04:00,39.2,17.7,29.77,North,-999,-999.0,-999.0,42,0.00,,,0.04,WSDL version 420,2013-01-20 22:04:00,
2013-01-20 17:10:00,38.7,17.5,29.77,North,-999,-999.0,-999.0,42,0.00,,,0.04,WSDL version 420,2013-01-20 22:10:00,
2013-01-20 17:16:00,38.1,17.2,29.77,North,-999,-999.0,-999.0,42,0.00,,,0.04,WSDL version 420,2013-01-20 22:16:00,
2013-01-20 17:22:00,37.8,16.8,29.77,North,-999,-999.0,-999.0,42,0.00,,,0.04,WSDL version 420,2013-01-20 22:22:00,
2013-01-20 17:29:00,37.4,15.9,29.80,North,-999,-999.0,-999.0,41,0.00,,,0.04,WSDL version 420,2013-01-20 22:29:00,
2013-01-20 17:35:00,37.0,15.4,29.80,North,-999,-999.0,-999.0,41,0.00,,,0.04,WSDL version 420,2013-01-20 22:35:00,
2013-01-20 17:41:00,36.6,15.3,29.80,North,-999,-999.0,-999.0,41,0.00,,,0.04,WSDL version 420,2013-01-20 22:41:00,
2013-01-20 17:47:00,36.3,14.9,29.80,North,-999,-999.0,-999.0,41,0.00,,,0.04,WSDL version 420,2013-01-20 22:47:00,
2013-01-20 17:53:00,35.7,14.8,29.80,North,-999,-999.0,-999.0,43,0.00,,,0.04,WSDL version 420,2013-01-20 22:53:00,
2013-01-20 17:59:00,35.3,14.5,29.80,North,-999,-999.0,-999.0,42,0.00,,,0.04,WSDL version 420,2013-01-20 22:59:00,
2013-01-20 18:05:00,35.1,14.6,29.80,North,-999,-999.0,-999.0,42,0.00,,,0.04,WSDL version 420,2013-01-20 23:05:00,
2013-01-20 18:11:00,34.8,14.3,29.80,North,-999,-999.0,-999.0,43,0.00,,,0.04,WSDL version 420,2013-01-20 23:11:00,
2013-01-20 18:17:00,34.5,14.1,29.80,North,-999,-999.0,-999.0,43,0.00,,,0.04,WSDL version 420,2013-01-20 23:17:00,
2013-01-20 18:23:00,34.3,13.6,29.80,SW,225,0.8,2.2,42,0.00,,,0.04,WSDL version 420,2013-01-20 23:23:00,
2013-01-20 18:30:00,33.9,13.5,29.83,NNW,338,0.0,2.2,42,0.00,,,0.04,WSDL version 420,2013-01-20 23:30:00,
2013-01-20 18:36:00,33.6,13.7,29.83,SE,135,3.1,3.1,44,0.00,,,0.04,WSDL version 420,2013-01-20 23:36:00,
2013-01-20 18:42:00,33.6,13.5,29.83,SSE,165,2.7,3.1,43,0.00,,,0.04,WSDL version 420,2013-01-20 23:42:00,
2013-01-20 18:48:00,33.5,13.4,29.83,NW,315,0.0,3.1,43,0.00,,,0.04,WSDL version 420,2013-01-20 23:48:00,
2013-01-20 18:54:00,33.3,13.2,29.83,ENE,68,1.6,1.6,43,0.00,,,0.04,WSDL version 420,2013-01-20 23:54:00,
2013-01-20 19:00:00,33.2,13.1,29.83,ENE,68,1.6,1.6,43,0.00,,,0.04,WSDL version 420,2013-01-21 00:00:00,
2013-01-20 19:08:00,32.7,12.6,29.83,North,-999,-999.0,-999.0,43,0.00,,,0.04,WSDL version 420,2013-01-21 00:08:00,
2013-01-20 19:14:00,32.5,12.3,29.83,North,-999,-999.0,-999.0,43,0.00,,,0.04,WSDL version 420,2013-01-21 00:14:00,
2013-01-20 19:20:00,32.3,12.3,29.83,North,-999,-999.0,-999.0,43,0.00,,,0.04,WSDL version 420,2013-01-21 00:20:00,
2013-01-20 19:26:00,32.1,12.9,29.83,North,-999,-999.0,-999.0,43,0.00,,,0.04,WSDL version 420,2013-01-21 00:26:00,
2013-01-20 19:33:00,31.8,14.1,29.85,SSE,158,3.8,3.8,43,0.00,,,0.04,WSDL version 420,2013-01-21 00:33:00,
2013-01-20 19:39:00,31.4,14.1,29.85,SSE,158,3.8,3.8,44,0.00,,,0.04,WSDL version 420,2013-01-21 00:39:00,
2013-01-20 19:45:00,31.0,13.8,29.85,North,-999,-999.0,-999.0,44,0.00,,,0.04,WSDL version 420,2013-01-21 00:45:00,
2013-01-20 19:51:00,31.0,13.8,29.85,North,-999,-999.0,-999.0,44,0.00,,,0.04,WSDL version 420,2013-01-21 00:51:00,
2013-01-20 19:57:00,31.1,13.8,29.85,North,-999,-999.0,-999.0,44,0.00,,,0.04,WSDL version 420,2013-01-21 00:57:00,
2013-01-20 20:03:00,30.9,13.5,29.85,North,-999,-999.0,-999.0,43,0.00,,,0.04,WSDL version 420,2013-01-21 01:03:00,
2013-01-20 20:09:00,30.9,13.6,29.85,North,-999,-999.0,-999.0,44,0.00,,,0.04,WSDL version 420,2013-01-21 01:09:00,
2013-01-20 20:15:00,30.6,13.4,29.85,North,-999,-999.0,-999.0,44,0.00,,,0.04,WSDL version 420,2013-01-21 01:15:00,
2013-01-20 20:21:00,30.3,13.1,29.85,North,-999,-999.0,-999.0,44,0.00,,,0.04,WSDL version 420,2013-01-21 01:21:00,
2013-01-20 20:28:00,30.2,13.0,29.88,North,-999,-999.0,-999.0,44,0.00,,,0.04,WSDL version 420,2013-01-21 01:28:00,
2013-01-20 20:34:00,30.1,12.9,29.88,North,-999,-999.0,-999.0,44,-99.99,,,-99.99,WSDL version 420,2013-01-21 01:34:00,
2013-01-20 20:40:00,29.8,12.7,29.88,North,-999,-999.0,-999.0,44,0.00,,,0.04,WSDL version 420,2013-01-21 01:40:00,
2013-01-20 20:46:00,29.8,12.7,29.88,North,8,2.0,7.2,44,0.00,,,0.04,WSDL version 420,2013-01-21 01:46:00,
2013-01-20 20:52:00,29.7,12.5,29.88,ESE,118,3.2,7.2,44,0.00,,,0.04,WSDL version 420,2013-01-21 01:52:00,
2013-01-20 20:58:00,29.5,12.4,29.88,SSW,203,1.2,5.6,44,0.00,,,0.04,WSDL version 420,2013-01-21 01:58:00,
2013-01-20 21:04:00,29.4,12.3,29.88,SW,225,1.0,4.7,44,0.00,,,0.04,WSDL version 420,2013-01-21 02:04:00,
2013-01-20 21:10:00,29.2,11.9,29.88,East,101,1.2,4.7,44,0.00,,,0.04,WSDL version 420,2013-01-21 02:10:00,
2013-01-20 21:16:00,28.8,11.7,29.91,ESE,120,3.3,4.9,44,0.00,,,0.04,WSDL version 420,2013-01-21 02:16:00,
2013-01-20 21:22:00,28.9,11.3,29.91,SE,143,1.9,3.6,43,0.00,,,0.04,WSDL version 420,2013-01-21 02:22:00,
2013-01-20 21:28:00,28.6,11.4,29.91,NW,315,2.6,3.1,43,0.00,,,0.04,WSDL version 420,2013-01-21 02:28:00,
2013-01-20 21:35:00,28.5,11.3,29.91,SW,225,1.1,3.1,44,0.00,,,0.04,WSDL version 420,2013-01-21 02:35:00,
2013-01-20 21:41:00,28.3,11.3,29.91,ESE,105,4.8,5.6,44,0.00,,,0.04,WSDL version 420,2013-01-21 02:41:00,
2013-01-20 21:47:00,28.3,11.2,29.91,West,281,2.2,5.6,44,0.00,,,0.04,WSDL version 420,2013-01-21 02:47:00,
2013-01-20 21:53:00,28.2,11.1,29.91,SSW,203,1.1,3.1,44,0.00,,,0.04,WSDL version 420,2013-01-21 02:53:00,
2013-01-20 21:59:00,27.9,10.9,29.91,South,186,3.0,4.7,44,0.00,,,0.04,WSDL version 420,2013-01-21 02:59:00,
2013-01-20 22:05:00,27.7,10.7,29.91,SE,146,2.0,4.7,44,0.00,,,0.04,WSDL version 420,2013-01-21 03:05:00,
2013-01-20 22:11:00,27.5,10.5,29.91,SSE,158,1.6,3.6,44,0.00,,,0.04,WSDL version 420,2013-01-21 03:11:00,
2013-01-20 22:17:00,27.4,10.4,29.91,NE,45,1.1,2.7,44,0.00,,,0.04,WSDL version 420,2013-01-21 03:17:00,
2013-01-20 22:24:00,27.2,10.2,29.91,SSE,158,2.6,3.8,44,0.00,,,0.04,WSDL version 420,2013-01-21 03:24:00,
2013-01-20 22:30:00,27.0,10.0,29.91,South,180,5.0,7.2,44,0.00,,,0.04,WSDL version 420,2013-01-21 03:30:00,
2013-01-20 22:36:00,26.8,9.6,29.91,East,98,2.8,7.2,43,0.00,,,0.04,WSDL version 420,2013-01-21 03:36:00,
2013-01-20 22:42:00,26.7,9.5,29.91,North,11,1.6,4.0,44,0.00,,,0.04,WSDL version 420,2013-01-21 03:42:00,
2013-01-20 22:48:00,26.5,9.5,29.91,SE,135,2.0,3.6,44,0.00,,,0.04,WSDL version 420,2013-01-21 03:48:00,
2013-01-20 22:54:00,26.3,9.2,29.91,SE,135,1.3,2.5,44,0.00,,,0.04,WSDL version 420,2013-01-21 03:54:00,
2013-01-20 23:00:00,26.1,9.1,29.91,SSE,150,3.0,4.0,43,0.00,,,0.04,WSDL version 420,2013-01-21 04:00:00,
2013-01-20 23:06:00,26.1,8.7,29.91,South,173,3.5,4.0,43,0.00,,,0.04,WSDL version 420,2013-01-21 04:06:00,
2013-01-20 23:12:00,25.9,8.5,29.91,East,90,2.0,5.4,43,0.00,,,0.04,WSDL version 420,2013-01-21 04:12:00,
2013-01-20 23:18:00,25.7,8.4,29.91,SW,218,3.5,5.4,43,0.00,,,0.04,WSDL version 420,2013-01-21 04:18:00,
2013-01-20 23:24:00,25.7,8.4,29.91,North,353,3.2,4.7,43,0.00,,,0.04,WSDL version 420,2013-01-21 04:24:00,
2013-01-20 23:30:00,-999.0,-99.9,29.91,WSW,248,2.2,4.7,-999,0.00,,,0.04,WSDL version 420,2013-01-21 04:30:00,
2013-01-20 23:37:00,25.5,8.2,29.91,NE,45,1.8,3.4,43,0.00,,,0.04,WSDL version 420,2013-01-21 04:37:00,
2013-01-20 23:43:00,25.3,8.0,29.91,ESE,113,5.8,5.8,43,0.00,,,0.04,WSDL version 420,2013-01-21 04:43:00,
2013-01-20 23:49:00,25.3,8.0,29.91,NE,34,1.1,5.8,43,0.00,,,0.04,WSDL version 420,2013-01-21 04:49:00,
2013-01-20 23:55:00,25.2,7.9,29.91,NNW,338,3.1,4.0,43,0.00,,,0.04,WSDL version 420,2013-01-21 04:55:00,